createdAt,value
2023-04-10T00:01:35.889Z,8.16
2023-04-10T00:04:04.988Z,8.06
2023-04-10T00:06:33.588Z,7.93
2023-04-10T00:09:02.972Z,7.83
2023-04-10T00:11:30.973Z,7.80
2023-04-10T00:13:58.942Z,7.75
2023-04-10T00:16:26.860Z,7.79
2023-04-10T00:18:54.821Z,7.78
2023-04-10T00:21:22.779Z,7.96
2023-04-10T00:23:50.826Z,7.82
2023-04-10T00:26:20.969Z,7.87
2023-04-10T00:28:48.996Z,7.86
2023-04-10T00:31:16.969Z,7.94
2023-04-10T00:33:44.830Z,7.98
2023-04-10T00:36:12.808Z,8.07
2023-04-10T00:38:40.746Z,8.00
2023-04-10T00:41:08.771Z,7.82
2023-04-10T00:43:38.324Z,7.74
2023-04-10T00:46:07.002Z,7.80
2023-04-10T00:48:35.609Z,7.47
2023-04-10T00:51:04.057Z,7.48
2023-04-10T00:53:32.064Z,7.61
2023-04-10T00:56:01.433Z,7.44
2023-04-10T00:58:29.386Z,7.67
2023-04-10T01:00:58.746Z,7.69
2023-04-10T01:03:26.842Z,7.61
2023-04-10T01:06:05.573Z,7.46
2023-04-10T01:08:42.573Z,7.45
2023-04-10T01:11:14.963Z,7.50
2023-04-10T01:13:52.073Z,7.45
2023-04-10T01:16:27.744Z,7.02
2023-04-10T01:19:03.526Z,6.83
2023-04-10T01:21:35.428Z,6.71
2023-04-10T01:24:25.447Z,6.92
2023-04-10T01:27:04.696Z,7.13
2023-04-10T01:29:37.231Z,7.08
2023-04-10T01:32:14.195Z,7.03
2023-04-10T01:34:45.149Z,6.69
2023-04-10T01:37:17.846Z,6.86
2023-04-10T01:39:51.011Z,6.72
2023-04-10T01:42:22.738Z,6.82
2023-04-10T01:44:54.775Z,6.75
2023-04-10T01:47:24.739Z,6.57
2023-04-10T01:49:54.231Z,6.67
2023-04-10T01:52:24.612Z,6.58
2023-04-10T01:54:54.397Z,6.47
2023-04-10T01:57:22.841Z,6.61
2023-04-10T01:59:52.303Z,6.64
2023-04-10T02:02:20.399Z,6.69
2023-04-10T02:04:51.775Z,6.79
2023-04-10T02:07:26.486Z,6.85
2023-04-10T02:09:59.971Z,6.77
2023-04-10T02:12:32.061Z,6.78
2023-04-10T02:15:04.103Z,6.53
2023-04-10T02:17:33.053Z,6.51
2023-04-10T02:20:01.769Z,6.50
2023-04-10T02:22:30.121Z,6.18
2023-04-10T02:24:58.690Z,6.44
2023-04-10T02:27:31.332Z,6.55
2023-04-10T02:29:59.332Z,6.88
2023-04-10T02:32:28.640Z,6.98
2023-04-10T02:34:56.553Z,7.17
2023-04-10T02:37:24.920Z,7.19
2023-04-10T02:39:54.716Z,7.09
2023-04-10T02:42:22.732Z,7.17
2023-04-10T02:44:50.690Z,7.25
2023-04-10T02:47:18.896Z,7.28
2023-04-10T02:49:48.394Z,7.08
2023-04-10T02:52:16.548Z,7.05
2023-04-10T02:54:44.689Z,7.04
2023-04-10T02:57:12.618Z,7.08
2023-04-10T02:59:40.579Z,7.06
2023-04-10T03:02:08.765Z,7.04
2023-04-10T03:04:36.831Z,7.13
2023-04-10T03:07:06.356Z,7.23
2023-04-10T03:09:34.486Z,7.02
2023-04-10T03:12:03.162Z,7.18
2023-04-10T03:14:31.207Z,6.89
2023-04-10T03:16:59.183Z,6.87
2023-04-10T03:19:28.160Z,6.71
2023-04-10T03:21:56.271Z,6.76
2023-04-10T03:24:25.857Z,6.79
2023-04-10T03:26:53.858Z,6.80
2023-04-10T03:29:21.798Z,7.01
2023-04-10T03:31:49.766Z,7.06
2023-04-10T03:34:18.559Z,7.05
2023-04-10T03:36:46.631Z,6.96
2023-04-10T03:39:14.570Z,6.98
2023-04-10T03:41:43.856Z,6.85
2023-04-10T03:44:11.723Z,6.95
2023-04-10T03:46:39.707Z,6.77
2023-04-10T03:49:07.650Z,6.79
2023-04-10T03:51:35.596Z,6.82
2023-04-10T03:54:03.724Z,6.88
2023-04-10T03:56:31.645Z,6.88
2023-04-10T03:59:00.978Z,6.92
2023-04-10T04:01:29.071Z,6.98
2023-04-10T04:03:57.170Z,6.87
2023-04-10T04:06:25.655Z,6.81
2023-04-10T04:08:53.670Z,6.67
2023-04-10T04:11:21.574Z,6.69
2023-04-10T04:13:49.470Z,6.97
2023-04-10T04:16:18.763Z,7.04
2023-04-10T04:18:46.700Z,7.05
2023-04-10T04:21:14.582Z,7.23
2023-04-10T04:23:42.553Z,7.19
2023-04-10T04:26:10.634Z,7.37
2023-04-10T04:28:38.504Z,7.38
2023-04-10T04:31:06.916Z,7.40
2023-04-10T04:33:36.181Z,7.32
2023-04-10T04:36:04.102Z,7.26
2023-04-10T04:38:32.082Z,7.26
2023-04-10T04:41:00.125Z,7.06
2023-04-10T04:43:28.053Z,7.05
2023-04-10T04:45:56.741Z,6.92
2023-04-10T04:48:24.620Z,6.85
2023-04-10T04:50:53.967Z,6.79
2023-04-10T04:53:21.877Z,6.84
2023-04-10T04:55:50.004Z,6.59
2023-04-10T04:58:18.027Z,6.86
2023-04-10T05:00:45.941Z,7.03
2023-04-10T05:03:14.102Z,7.08
2023-04-10T05:05:42.084Z,7.01
2023-04-10T05:08:11.784Z,7.02
2023-04-10T05:10:39.727Z,7.14
2023-04-10T05:13:07.712Z,7.25
2023-04-10T05:15:35.774Z,7.43
2023-04-10T05:18:03.844Z,7.53
2023-04-10T05:20:31.940Z,7.63
2023-04-10T05:22:59.854Z,7.89
2023-04-10T05:25:29.209Z,8.09
2023-04-10T05:27:57.374Z,8.19
2023-04-10T05:30:25.562Z,8.18
2023-04-10T05:32:53.499Z,8.14
2023-04-10T05:35:21.438Z,8.19
2023-04-10T05:37:49.442Z,8.42
2023-04-10T05:40:17.483Z,8.36
2023-04-10T05:42:47.149Z,8.49
2023-04-10T05:45:15.381Z,8.70
2023-04-10T05:47:43.339Z,9.13
2023-04-10T05:50:11.786Z,9.69
2023-04-10T05:52:39.733Z,10.25
2023-04-10T05:55:09.569Z,10.44
2023-04-10T05:57:37.619Z,10.33
2023-04-10T06:00:08.324Z,10.41
2023-04-10T06:02:36.631Z,10.04
2023-04-10T06:05:05.351Z,10.09
2023-04-10T06:07:33.463Z,10.25
2023-04-10T06:10:01.376Z,10.02
2023-04-10T06:12:29.390Z,10.39
2023-04-10T06:14:57.323Z,10.94
2023-04-10T06:17:28.368Z,10.91
2023-04-10T06:19:56.808Z,11.17
2023-04-10T06:22:24.715Z,11.01
2023-04-10T06:24:52.689Z,11.17
2023-04-10T06:27:20.726Z,11.24
2023-04-10T06:29:48.729Z,11.06
2023-04-10T06:32:16.702Z,10.44
2023-04-10T06:34:46.508Z,11.71
2023-04-10T06:37:14.359Z,12.37
2023-04-10T06:39:42.321Z,12.93
2023-04-10T06:42:10.486Z,13.37
2023-04-10T06:44:38.435Z,13.74
2023-04-10T06:47:06.957Z,13.84
2023-04-10T06:49:35.163Z,13.22
2023-04-10T06:52:04.527Z,14.43
2023-04-10T06:54:32.582Z,14.41
2023-04-10T06:57:00.513Z,14.84
2023-04-10T06:59:29.276Z,15.15
2023-04-10T07:01:57.301Z,15.68
2023-04-10T07:04:25.383Z,15.77
2023-04-10T07:06:53.314Z,15.93
2023-04-10T07:09:22.651Z,16.39
2023-04-10T07:11:50.835Z,16.76
2023-04-10T07:14:18.813Z,16.73
2023-04-10T07:16:46.830Z,17.03
2023-04-10T07:19:14.849Z,17.46
2023-04-10T07:21:42.845Z,17.13
2023-04-10T07:24:10.795Z,16.56
2023-04-10T07:26:40.109Z,15.85
2023-04-10T07:29:09.397Z,15.75
2023-04-10T07:31:37.454Z,15.41
2023-04-10T07:34:05.508Z,15.74
2023-04-10T07:36:33.574Z,15.47
2023-04-10T07:39:01.537Z,16.06
2023-04-10T07:41:29.568Z,16.70
2023-04-10T07:43:58.829Z,16.25
2023-04-10T07:46:27.578Z,15.90
2023-04-10T07:48:56.497Z,15.42
2023-04-10T07:51:24.928Z,15.21
2023-04-10T07:53:52.811Z,15.67
2023-04-10T07:56:21.826Z,15.54
2023-04-10T07:58:50.286Z,15.61
2023-04-10T08:01:19.573Z,15.89
2023-04-10T08:03:48.321Z,15.41
2023-04-10T08:06:16.545Z,15.64
2023-04-10T08:08:44.490Z,14.88
2023-04-10T08:11:24.723Z,16.08
2023-04-10T08:13:52.983Z,16.64
2023-04-10T08:16:25.086Z,15.39
2023-04-10T08:18:53.610Z,14.94
2023-04-10T08:21:23.016Z,13.59
2023-04-10T08:23:52.162Z,13.91
2023-04-10T08:26:21.329Z,14.05
2023-04-10T08:28:51.055Z,14.07
2023-04-10T08:31:19.281Z,13.96
2023-04-10T08:33:49.028Z,14.10
2023-04-10T08:36:19.774Z,14.02
2023-04-10T08:38:49.275Z,13.82
2023-04-10T08:41:18.565Z,13.39
2023-04-10T08:43:47.358Z,13.28
2023-04-10T08:46:16.103Z,13.71
2023-04-10T08:48:53.978Z,13.85
2023-04-10T08:51:26.409Z,14.07
2023-04-10T08:53:59.600Z,14.07
2023-04-10T08:56:28.108Z,13.63
2023-04-10T08:58:56.468Z,13.72
2023-04-10T09:01:26.175Z,13.72
2023-04-10T09:03:56.590Z,13.51
2023-04-10T09:06:24.808Z,13.63
2023-04-10T09:08:52.815Z,13.68
2023-04-10T09:11:20.809Z,13.75
2023-04-10T09:13:48.744Z,13.44
2023-04-10T09:16:16.764Z,13.23
2023-04-10T09:18:46.826Z,13.37
2023-04-10T09:21:18.042Z,13.46
2023-04-10T09:23:47.304Z,13.53
2023-04-10T09:26:29.069Z,13.32
2023-04-10T09:28:58.919Z,13.63
2023-04-10T09:31:34.898Z,13.27
2023-04-10T09:34:13.315Z,13.35
2023-04-10T09:36:43.052Z,13.67
2023-04-10T09:39:12.403Z,13.56
2023-04-10T09:41:58.755Z,13.66
2023-04-10T09:44:31.409Z,13.94
2023-04-10T09:46:59.644Z,13.85
2023-04-10T09:49:27.765Z,13.64
2023-04-10T09:51:57.498Z,13.42
2023-04-10T09:54:38.219Z,13.11
2023-04-10T09:57:08.326Z,13.05
2023-04-10T09:59:41.147Z,12.69
2023-04-10T10:02:10.649Z,12.85
2023-04-10T10:04:40.623Z,12.99
2023-04-10T10:07:10.693Z,12.94
2023-04-10T10:09:39.097Z,13.15
2023-04-10T10:12:08.622Z,12.56
2023-04-10T10:14:40.541Z,12.19
2023-04-10T10:17:12.753Z,12.30
2023-04-10T10:19:46.608Z,12.60
2023-04-10T10:22:16.355Z,12.66
2023-04-10T10:24:47.778Z,12.60
2023-04-10T10:27:18.356Z,12.65
2023-04-10T10:29:49.672Z,12.74
2023-04-10T10:32:19.062Z,12.68
2023-04-10T10:34:47.406Z,12.63
2023-04-10T10:37:18.157Z,12.57
2023-04-10T10:39:54.124Z,12.29
2023-04-10T10:42:27.834Z,12.43
2023-04-10T10:45:03.679Z,12.73
2023-04-10T10:47:33.966Z,12.86
2023-04-10T10:50:03.638Z,12.99
2023-04-10T10:52:44.813Z,12.98
2023-04-10T10:55:37.204Z,13.12
2023-04-10T10:58:07.431Z,12.67
2023-04-10T11:01:09.975Z,12.60
2023-04-10T11:03:39.170Z,12.77
2023-04-10T11:06:09.549Z,13.10
2023-04-10T11:08:43.452Z,13.18
2023-04-10T11:11:15.836Z,13.22
2023-04-10T11:14:18.197Z,12.95
2023-04-10T11:16:48.617Z,12.96
2023-04-10T11:19:22.777Z,12.69
2023-04-10T11:22:08.263Z,12.77
2023-04-10T11:25:00.785Z,12.48
2023-04-10T11:27:49.769Z,12.71
2023-04-10T11:30:30.970Z,12.97
2023-04-10T11:33:00.416Z,13.14
2023-04-10T11:35:31.444Z,13.08
2023-04-10T11:38:19.272Z,12.94
2023-04-10T11:41:04.294Z,12.91
2023-04-10T11:43:33.786Z,12.85
2023-04-10T11:46:07.540Z,12.65
2023-04-10T11:48:37.039Z,12.15
2023-04-10T11:51:09.437Z,12.13
2023-04-10T11:53:37.437Z,12.02
2023-04-10T11:56:08.775Z,12.25
2023-04-10T11:58:37.102Z,12.33
2023-04-10T12:01:06.033Z,12.23
2023-04-10T12:03:38.930Z,12.42
2023-04-10T12:06:10.475Z,12.51
2023-04-10T12:08:40.527Z,12.25
2023-04-10T12:11:11.323Z,11.55
2023-04-10T12:13:39.823Z,12.10
2023-04-10T12:16:10.420Z,12.31
2023-04-10T12:18:38.802Z,12.53
2023-04-10T12:21:08.525Z,12.60
2023-04-10T12:23:39.127Z,12.79
2023-04-10T12:26:11.160Z,13.16
2023-04-10T12:28:41.102Z,13.30
2023-04-10T12:31:10.143Z,13.51
2023-04-10T12:33:38.333Z,13.51
2023-04-10T12:36:06.784Z,13.61
2023-04-10T12:38:42.004Z,13.30
2023-04-10T12:41:13.304Z,13.08
2023-04-10T12:43:42.970Z,13.48
2023-04-10T12:46:11.841Z,13.49
2023-04-10T12:48:39.769Z,13.56
2023-04-10T12:51:08.219Z,13.63
2023-04-10T12:53:44.772Z,13.50
2023-04-10T12:56:14.807Z,13.73
2023-04-10T12:58:43.761Z,13.80
2023-04-10T13:01:11.772Z,13.89
2023-04-10T13:03:40.119Z,13.99
2023-04-10T13:06:09.191Z,13.87
2023-04-10T13:08:38.354Z,13.74
2023-04-10T13:11:07.294Z,13.65
2023-04-10T13:13:36.881Z,13.76
2023-04-10T13:16:05.005Z,14.06
2023-04-10T13:18:32.968Z,14.05
2023-04-10T13:21:00.966Z,13.99
2023-04-10T13:23:28.963Z,14.09
2023-04-10T13:25:59.058Z,13.92
2023-04-10T13:28:26.928Z,13.96
2023-04-10T13:30:56.532Z,13.98
2023-04-10T13:33:25.011Z,13.80
2023-04-10T13:35:53.004Z,13.74
2023-04-10T13:38:21.484Z,13.95
2023-04-10T13:40:49.449Z,13.97
2023-04-10T13:43:17.400Z,14.00
2023-04-10T13:45:45.295Z,14.01
2023-04-10T13:48:17.599Z,13.83
2023-04-10T13:50:46.836Z,14.00
2023-04-10T13:53:14.832Z,13.65
2023-04-10T13:55:43.873Z,13.90
2023-04-10T13:58:13.376Z,14.01
2023-04-10T14:00:41.568Z,13.85
2023-04-10T14:03:12.267Z,13.95
2023-04-10T14:05:41.686Z,13.82
2023-04-10T14:08:11.759Z,13.13
2023-04-10T14:10:40.624Z,12.56
2023-04-10T14:13:09.164Z,12.87
2023-04-10T14:15:37.115Z,13.05
2023-04-10T14:18:05.101Z,13.13
2023-04-10T14:20:33.842Z,12.94
2023-04-10T14:23:03.327Z,12.89
2023-04-10T14:25:31.257Z,13.15
2023-04-10T14:27:59.414Z,12.99
2023-04-10T14:30:30.772Z,12.79
2023-04-10T14:32:59.073Z,13.01
2023-04-10T14:35:27.354Z,13.14
2023-04-10T14:37:55.689Z,13.51
2023-04-10T14:40:26.740Z,13.21
2023-04-10T14:42:54.739Z,13.24
2023-04-10T14:45:22.780Z,13.42
2023-04-10T14:47:50.835Z,12.73
2023-04-10T14:50:18.849Z,12.39
2023-04-10T14:52:46.845Z,12.65
2023-04-10T14:55:14.758Z,12.87
2023-04-10T14:57:43.978Z,12.81
2023-04-10T15:00:13.046Z,12.50
2023-04-10T15:02:41.048Z,12.27
2023-04-10T15:05:09.254Z,11.97
2023-04-10T15:07:37.182Z,12.06
2023-04-10T15:10:05.768Z,11.99
2023-04-10T15:12:33.735Z,12.02
2023-04-10T15:15:03.075Z,11.81
2023-04-10T15:17:31.148Z,11.90
2023-04-10T15:19:59.114Z,11.67
2023-04-10T15:22:27.246Z,11.51
2023-04-10T15:24:55.303Z,11.17
2023-04-10T15:27:23.230Z,11.34
2023-04-10T15:29:51.495Z,11.42
2023-04-10T15:32:20.879Z,11.50
2023-04-10T15:34:48.828Z,11.38
2023-04-10T15:37:16.780Z,11.36
2023-04-10T15:39:44.737Z,11.45
2023-04-10T15:42:12.650Z,11.53
2023-04-10T15:44:40.596Z,11.60
2023-04-10T15:47:08.526Z,11.57
2023-04-10T15:49:38.850Z,11.49
2023-04-10T15:52:07.505Z,11.64
2023-04-10T15:54:35.735Z,11.40
2023-04-10T15:57:04.270Z,11.04
2023-04-10T15:59:33.707Z,10.97
2023-04-10T16:02:01.870Z,10.89
2023-04-10T16:04:30.198Z,11.04
2023-04-10T16:06:59.543Z,11.05
2023-04-10T16:09:27.604Z,11.17
2023-04-10T16:11:56.320Z,11.03
2023-04-10T16:14:24.298Z,11.21
2023-04-10T16:16:52.311Z,11.18
2023-04-10T16:19:20.283Z,11.22
2023-04-10T16:21:48.252Z,11.03
2023-04-10T16:24:17.625Z,11.05
2023-04-10T16:26:45.610Z,11.03
2023-04-10T16:29:13.537Z,11.04
2023-04-10T16:31:41.568Z,11.03
2023-04-10T16:34:09.571Z,11.26
2023-04-10T16:36:37.455Z,11.25
2023-04-10T16:39:05.787Z,11.14
2023-04-10T16:41:35.232Z,11.24
2023-04-10T16:44:03.309Z,11.40
2023-04-10T16:46:33.188Z,11.21
2023-04-10T16:49:01.642Z,10.97
2023-04-10T16:51:29.683Z,11.14
2023-04-10T16:53:57.616Z,11.13
2023-04-10T16:56:25.669Z,11.17
2023-04-10T16:58:55.128Z,11.20
2023-04-10T17:01:26.139Z,11.13
2023-04-10T17:03:55.464Z,11.13
2023-04-10T17:06:23.559Z,11.12
2023-04-10T17:08:51.598Z,11.31
2023-04-10T17:11:19.605Z,11.24
2023-04-10T17:13:47.708Z,11.16
2023-04-10T17:16:17.114Z,10.67
2023-04-10T17:18:45.490Z,10.30
2023-04-10T17:21:14.109Z,10.10
2023-04-10T17:23:42.246Z,10.17
2023-04-10T17:26:14.491Z,10.10
2023-04-10T17:28:44.407Z,9.87
2023-04-10T17:31:12.425Z,10.06
2023-04-10T17:33:42.875Z,10.06
2023-04-10T17:36:12.346Z,9.94
2023-04-10T17:38:41.088Z,9.80
2023-04-10T17:41:09.970Z,9.86
2023-04-10T17:43:37.903Z,9.92
2023-04-10T17:46:06.158Z,10.00
2023-04-10T17:48:34.486Z,10.09
2023-04-10T17:51:07.439Z,9.98
2023-04-10T17:53:36.006Z,10.14
2023-04-10T17:56:03.934Z,10.07
2023-04-10T17:58:31.953Z,9.89
2023-04-10T18:01:00.079Z,10.05
2023-04-10T18:03:28.131Z,10.07
2023-04-10T18:05:56.084Z,10.23
2023-04-10T18:08:25.407Z,10.22
2023-04-10T18:10:53.504Z,10.14
2023-04-10T18:13:21.466Z,10.26
2023-04-10T18:15:49.376Z,10.12
2023-04-10T18:18:17.437Z,10.10
2023-04-10T18:20:45.396Z,10.03
2023-04-10T18:23:13.304Z,10.05
2023-04-10T18:25:42.823Z,9.95
2023-04-10T18:28:14.860Z,10.01
2023-04-10T18:30:44.006Z,10.03
2023-04-10T18:33:11.999Z,9.72
2023-04-10T18:35:40.047Z,9.62
2023-04-10T18:38:08.159Z,9.72
2023-04-10T18:40:36.805Z,9.68
2023-04-10T18:43:06.574Z,9.45
2023-04-10T18:45:35.046Z,9.53
2023-04-10T18:48:03.206Z,9.54
2023-04-10T18:50:34.851Z,9.69
2023-04-10T18:53:02.827Z,9.72
2023-04-10T18:55:30.768Z,9.87
2023-04-10T18:57:58.975Z,9.80
2023-04-10T19:00:28.635Z,9.81
2023-04-10T19:02:56.972Z,9.94
2023-04-10T19:05:25.034Z,9.99
2023-04-10T19:08:02.808Z,9.54
2023-04-10T19:10:31.454Z,10.01
2023-04-10T19:12:59.379Z,9.87
2023-04-10T19:15:28.709Z,9.79
2023-04-10T19:17:56.808Z,9.66
2023-04-10T19:20:49.839Z,9.76
2023-04-10T19:23:13.182Z,9.74
2023-04-10T19:25:41.225Z,9.78
2023-04-10T19:28:09.211Z,9.75
2023-04-10T19:30:38.694Z,9.44
2023-04-10T19:33:07.099Z,9.22
2023-04-10T19:35:35.062Z,8.97
2023-04-10T19:38:03.067Z,8.78
2023-04-10T19:40:31.403Z,8.77
2023-04-10T19:43:01.899Z,8.99
2023-04-10T19:45:32.228Z,8.94
2023-04-10T19:48:01.716Z,8.82
2023-04-10T19:50:30.862Z,8.78
2023-04-10T19:52:59.569Z,8.94
2023-04-10T19:55:28.281Z,8.74
2023-04-10T19:57:56.189Z,8.93
2023-04-10T20:00:24.155Z,8.97
2023-04-10T20:02:52.300Z,8.74
2023-04-10T20:05:22.437Z,8.96
2023-04-10T20:07:50.624Z,8.92
2023-04-10T20:10:18.580Z,8.88
2023-04-10T20:12:46.586Z,8.46
2023-04-10T20:15:14.548Z,8.15
2023-04-10T20:17:42.508Z,8.05
2023-04-10T20:20:12.752Z,8.18
2023-04-10T20:22:42.015Z,8.27
2023-04-10T20:25:10.723Z,8.15
2023-04-10T20:27:38.709Z,8.26
2023-04-10T20:30:08.041Z,8.49
2023-04-10T20:32:37.014Z,8.58
2023-04-10T20:35:05.613Z,8.47
2023-04-10T20:37:33.560Z,8.40
2023-04-10T20:40:03.270Z,8.52
2023-04-10T20:42:31.245Z,8.42
2023-04-10T20:44:59.114Z,8.64
2023-04-10T20:47:27.099Z,8.56
2023-04-10T20:49:55.034Z,8.80
2023-04-10T20:52:23.075Z,8.81
2023-04-10T20:54:50.981Z,8.74
2023-04-10T20:57:20.375Z,8.57
2023-04-10T20:59:48.349Z,8.78
2023-04-10T21:02:18.130Z,8.91
2023-04-10T21:04:46.121Z,8.86
2023-04-10T21:07:14.114Z,8.81
2023-04-10T21:09:42.111Z,8.90
2023-04-10T21:12:10.078Z,8.88
2023-04-10T21:14:39.500Z,8.32
2023-04-10T21:17:07.434Z,8.24
2023-04-10T21:19:35.361Z,8.32
2023-04-10T21:22:03.356Z,8.55
2023-04-10T21:24:31.329Z,8.36
2023-04-10T21:26:59.246Z,8.26
2023-04-10T21:29:27.114Z,8.21
2023-04-10T21:31:56.496Z,8.28
2023-04-10T21:34:25.239Z,8.27
2023-04-10T21:36:53.154Z,8.20
2023-04-10T21:39:21.068Z,8.23
2023-04-10T21:41:49.013Z,8.12
2023-04-10T21:44:17.058Z,8.10
2023-04-10T21:46:44.976Z,8.38
2023-04-10T21:49:14.321Z,8.24
2023-04-10T21:51:42.253Z,8.35
2023-04-10T21:54:10.181Z,8.05
2023-04-10T21:56:38.866Z,8.17
2023-04-10T21:59:06.896Z,8.02
2023-04-10T22:01:35.240Z,7.80
2023-04-10T22:04:03.429Z,8.03
2023-04-10T22:06:32.818Z,8.07
2023-04-10T22:09:00.799Z,8.04
2023-04-10T22:11:28.681Z,8.22
2023-04-10T22:13:58.245Z,8.20
2023-04-10T22:16:30.829Z,8.21
2023-04-10T22:18:58.831Z,8.24
2023-04-10T22:21:27.503Z,8.10
2023-04-10T22:23:56.763Z,8.04
2023-04-10T22:26:24.709Z,8.24
2023-04-10T22:28:52.906Z,8.09
2023-04-10T22:31:21.500Z,8.17
2023-04-10T22:33:50.266Z,8.10
2023-04-10T22:36:18.140Z,8.10
2023-04-10T22:38:46.057Z,8.06
2023-04-10T22:41:15.392Z,8.17
2023-04-10T22:43:43.313Z,8.33
2023-04-10T22:46:11.324Z,8.35
2023-04-10T22:48:39.432Z,8.51
2023-04-10T22:51:11.587Z,8.45
2023-04-10T22:53:39.525Z,8.57
2023-04-10T22:56:08.548Z,8.47
2023-04-10T22:58:39.241Z,8.52
2023-04-10T23:01:08.398Z,8.64
2023-04-10T23:03:36.308Z,8.53
2023-04-10T23:06:04.472Z,8.61
2023-04-10T23:08:32.471Z,8.62
2023-04-10T23:11:00.489Z,8.66
2023-04-10T23:13:28.560Z,8.77
2023-04-10T23:15:57.935Z,8.74
2023-04-10T23:18:25.923Z,8.81
2023-04-10T23:20:53.926Z,8.76
2023-04-10T23:23:21.867Z,8.80
2023-04-10T23:25:58.237Z,8.94
2023-04-10T23:28:26.331Z,9.02
2023-04-10T23:30:54.645Z,9.05
2023-04-10T23:33:23.955Z,9.02
2023-04-10T23:35:51.962Z,8.83
2023-04-10T23:38:21.233Z,8.83
2023-04-10T23:40:49.302Z,8.90
2023-04-10T23:43:17.236Z,8.90
2023-04-10T23:45:45.175Z,8.78
2023-04-10T23:48:13.128Z,8.66
2023-04-10T23:50:42.551Z,8.74
2023-04-10T23:53:10.885Z,8.86
2023-04-10T23:55:40.255Z,8.78
2023-04-10T23:58:08.236Z,8.85
